createdAt,value
2019-04-28T00:00:11.956Z,95742.2
2019-04-28T00:01:14.383Z,95737.7
2019-04-28T00:02:16.508Z,95737.1
2019-04-28T00:03:18.661Z,95739.8
2019-04-28T00:04:22.703Z,95732.3
2019-04-28T00:05:25.123Z,95731.9
2019-04-28T00:06:27.556Z,95729.4
2019-04-28T00:07:29.467Z,95729
2019-04-28T00:08:33.355Z,95724.1
2019-04-28T00:09:35.775Z,95727.2
2019-04-28T00:10:37.923Z,95731.7
2019-04-28T00:11:42.216Z,95730.5
2019-04-28T00:12:44.085Z,95728.3
2019-04-28T00:13:46.233Z,95729.3
2019-04-28T00:14:48.380Z,95725.7
2019-04-28T00:15:52.260Z,95726.6
2019-04-28T00:16:54.410Z,95726.8
2019-04-28T00:17:56.273Z,95719.1
2019-04-28T00:18:58.707Z,95718.3
2019-04-28T00:20:02.985Z,95725.5
2019-04-28T00:21:05.140Z,95727.2
2019-04-28T00:22:07.572Z,95718.3
2019-04-28T00:23:11.598Z,95725.1
2019-04-28T00:24:14.074Z,95722.2
2019-04-28T00:25:16.230Z,95712.5
2019-04-28T00:26:18.374Z,95711.8
2019-04-28T00:27:22.548Z,95705.4
2019-04-28T00:28:24.972Z,95707.8
2019-04-28T00:30:32.636Z,95706
2019-04-28T00:31:34.804Z,95703.3
2019-04-28T00:32:37.230Z,95700.7
2019-04-28T00:33:43.533Z,95702.4
2019-04-28T00:34:45.774Z,95703.4
2019-04-28T00:35:47.912Z,95710.9
2019-04-28T00:36:51.832Z,95710.4
2019-04-28T00:37:54.250Z,95708.9
2019-04-28T00:38:56.400Z,95711.1
2019-04-28T00:39:58.811Z,95707.7
2019-04-28T00:41:03.908Z,95709.9
2019-04-28T00:42:06.046Z,95705.1
2019-04-28T00:43:07.920Z,95705
2019-04-28T00:44:11.844Z,95703.4
2019-04-28T00:45:14.243Z,95705.3
2019-04-28T00:46:16.387Z,95707.9
2019-04-28T00:47:18.004Z,95720.5
2019-04-28T00:48:22.351Z,95722.5
2019-04-28T00:49:24.533Z,95721.5
2019-04-28T00:50:26.692Z,95724.5
2019-04-28T00:51:28.827Z,95723.8
2019-04-28T00:52:33.594Z,95727.1
2019-04-28T00:53:36.022Z,95724.1
2019-04-28T00:54:38.188Z,95732.2
2019-04-28T00:55:42.583Z,95733.6
2019-04-28T00:56:45.014Z,95732.6
2019-04-28T00:57:47.153Z,95738.4
2019-04-28T00:58:51.342Z,95735.6
2019-04-28T01:01:02.824Z,95742.9
2019-04-28T01:02:04.432Z,95741.2
2019-04-28T01:03:06.336Z,95739.2
2019-04-28T01:04:08.482Z,95738.7
2019-04-28T01:05:12.744Z,95739.3
2019-04-28T01:06:15.586Z,95733.9
2019-04-28T01:07:18.019Z,95744.3
2019-04-28T01:08:22.065Z,95740.6
2019-04-28T01:09:24.526Z,95748.7
2019-04-28T01:10:26.669Z,95744.5
2019-04-28T01:11:28.818Z,95746.5
2019-04-28T01:12:32.619Z,95749.5
2019-04-28T01:13:34.759Z,95747.8
2019-04-28T01:14:36.914Z,95751.5
2019-04-28T01:15:41.052Z,95754.7
2019-04-28T01:16:43.468Z,95759
2019-04-28T01:17:45.902Z,95758.4
2019-04-28T01:18:47.798Z,95758
2019-04-28T01:19:52.612Z,95757.1
2019-04-28T01:20:54.753Z,95759.3
2019-04-28T01:21:56.911Z,95753.3
2019-04-28T01:23:01.127Z,95753.8
2019-04-28T01:24:03.282Z,95755.7
2019-04-28T01:25:05.704Z,95756.5
2019-04-28T01:26:07.583Z,95750.8
2019-04-28T01:27:11.870Z,95753.8
2019-04-28T01:28:14.032Z,95755.1
2019-04-28T01:29:16.160Z,95758.5
2019-04-28T01:30:20.735Z,95760.1
2019-04-28T01:31:23.176Z,95756.5
2019-04-28T01:32:25.330Z,95755.6
2019-04-28T01:33:29.427Z,95758.4
2019-04-28T01:34:31.930Z,95753.1
2019-04-28T01:35:34.084Z,95751.8
2019-04-28T01:36:36.247Z,95754.9
2019-04-28T01:37:40.498Z,95753.8
2019-04-28T01:38:42.844Z,95755.1
2019-04-28T01:39:44.968Z,95753.1
2019-04-28T01:40:47.380Z,95746
2019-04-28T01:41:51.864Z,95745.7
2019-04-28T01:42:54.004Z,95750.1
2019-04-28T01:43:55.606Z,95749.7
2019-04-28T01:44:57.750Z,95754.1
2019-04-28T01:46:01.638Z,95751
2019-04-28T01:47:03.255Z,95756
2019-04-28T01:48:05.694Z,95752.9
2019-04-28T01:49:10.103Z,95759.3
2019-04-28T01:50:12.523Z,95765.7
2019-04-28T01:51:14.672Z,95763.3
2019-04-28T01:52:16.542Z,95764.5
2019-04-28T01:53:20.849Z,95763.2
2019-04-28T01:54:23.002Z,95759.1
2019-04-28T01:55:25.156Z,95760
2019-04-28T01:56:27.565Z,95763.1
2019-04-28T01:57:31.140Z,95763.8
2019-04-28T01:58:33.024Z,95766.6
2019-04-28T01:59:35.166Z,95764.5
2019-04-28T02:00:37.316Z,95761.6
2019-04-28T02:01:41.384Z,95760.8
2019-04-28T02:02:43.526Z,95762.3
2019-04-28T02:03:45.691Z,95757.3
2019-04-28T02:04:47.584Z,95759.7
2019-04-28T02:05:51.842Z,95764
2019-04-28T02:06:53.994Z,95764.4
2019-04-28T02:07:56.415Z,95761.3
2019-04-28T02:08:58.563Z,95765.9
2019-04-28T02:10:02.934Z,95759.1
2019-04-28T02:11:05.094Z,95761.3
2019-04-28T02:12:07.519Z,95764.4
2019-04-28T02:13:11.860Z,95772.4
2019-04-28T02:14:14.291Z,95769.9
2019-04-28T02:15:16.447Z,95768.6
2019-04-28T02:16:20.884Z,95769.8
2019-04-28T02:17:22.753Z,95768.8
2019-04-28T02:18:24.634Z,95773.4
2019-04-28T02:19:27.062Z,95771.2
2019-04-28T02:20:31.579Z,95771.6
2019-04-28T02:21:33.998Z,95769.6
2019-04-28T02:22:36.189Z,95768.2
2019-04-28T02:23:40.642Z,95769
2019-04-28T02:24:43.066Z,95769.2
2019-04-28T02:25:45.252Z,95769.9
2019-04-28T02:26:47.675Z,95769.2
2019-04-28T02:27:51.635Z,95767.2
2019-04-28T02:28:53.796Z,95765.2
2019-04-28T02:29:55.920Z,95765.7
2019-04-28T02:30:58.353Z,95765.2
2019-04-28T02:32:05.284Z,95766.9
2019-04-28T02:33:07.434Z,95770.9
2019-04-28T02:35:14.860Z,95771.1
2019-04-28T02:36:17.289Z,95772.6
2019-04-28T02:38:24.433Z,95771.9
2019-04-28T02:39:26.865Z,95770.6
2019-04-28T02:41:35.105Z,95772.9
2019-04-28T02:42:37.242Z,95768.6
2019-04-28T02:43:43.877Z,95774.5
2019-04-28T02:44:46.025Z,95771.8
2019-04-28T02:45:51.049Z,95775.6
2019-04-28T02:46:54.324Z,95776.6
2019-04-28T02:47:56.766Z,95773.4
2019-04-28T02:50:04.192Z,95773.5
2019-04-28T02:51:06.334Z,95768
2019-04-28T02:53:14.245Z,95768.1
2019-04-28T02:54:16.673Z,95762.7
2019-04-28T02:56:25.045Z,95761.6
2019-04-28T02:57:26.897Z,95769.6
2019-04-28T02:59:34.783Z,95768
2019-04-28T03:00:36.930Z,95769.1
2019-04-28T03:02:44.369Z,95765.2
2019-04-28T03:03:46.792Z,95763.7
2019-04-28T03:05:54.209Z,95771.4
2019-04-28T03:06:56.620Z,95772.7
2019-04-28T03:09:04.727Z,95770.9
2019-04-28T03:10:07.145Z,95775.6
2019-04-28T03:12:14.010Z,95774.3
2019-04-28T03:13:15.892Z,95772.3
2019-04-28T03:15:23.986Z,95771.8
2019-04-28T03:16:26.138Z,95772.4
2019-04-28T03:18:34.515Z,95771.8
2019-04-28T03:19:36.942Z,95776.3
2019-04-28T03:20:41.378Z,95772.4
2019-04-28T03:21:45.255Z,95771.9
2019-04-28T03:22:50.709Z,95775.8
2019-04-28T03:23:54.105Z,95768.9
2019-04-28T03:24:56.528Z,95767.8
2019-04-28T03:26:01.133Z,95766.9
2019-04-28T03:27:05.240Z,95765.7
2019-04-28T03:28:07.360Z,95765.2
2019-04-28T03:30:15.009Z,95767
2019-04-28T03:33:27.978Z,95765.8
2019-04-28T03:36:45.249Z,95762.4
2019-04-28T03:37:47.132Z,95763
2019-04-28T03:39:54.555Z,95767.7
2019-04-28T03:40:56.708Z,95768
2019-04-28T03:43:04.778Z,95768
2019-04-28T03:44:06.364Z,95767.3
2019-04-28T03:46:13.908Z,95767.7
2019-04-28T03:47:16.335Z,95764.8
2019-04-28T03:49:24.429Z,95769.1
2019-04-28T03:50:26.869Z,95765
2019-04-28T03:52:34.192Z,95763.2
2019-04-28T03:53:36.355Z,95758.3
2019-04-28T03:55:44.252Z,95755.1
2019-04-28T03:56:46.396Z,95758.1
2019-04-28T03:58:54.482Z,95750.3
2019-04-28T03:59:56.638Z,95750.6
2019-04-28T04:02:04.972Z,95741.5
2019-04-28T04:03:07.143Z,95739.5
2019-04-28T04:05:14.980Z,95745.2
2019-04-28T04:06:17.420Z,95746.7
2019-04-28T04:08:24.846Z,95746.1
2019-04-28T04:09:27.274Z,95748
2019-04-28T04:11:34.143Z,95745.2
2019-04-28T04:12:36.564Z,95746.1
2019-04-28T04:14:44.957Z,95744.4
2019-04-28T04:16:52.087Z,95748.4
2019-04-28T04:17:54.512Z,95747.8
2019-04-28T04:18:56.951Z,95750.2
2019-04-28T04:21:04.567Z,95750.9
2019-04-28T04:22:06.710Z,95754.3
2019-04-28T04:24:14.313Z,95753.4
2019-04-28T04:25:16.455Z,95753.1
2019-04-28T04:27:24.555Z,95749.3
2019-04-28T04:28:26.976Z,95745.4
2019-04-28T04:29:31.413Z,95752.1
2019-04-28T04:30:33.563Z,95752.5
2019-04-28T04:31:35.699Z,95747.7
2019-04-28T04:32:40.873Z,95749.8
2019-04-28T04:33:44.286Z,95749.7
2019-04-28T04:34:46.433Z,95746.7
2019-04-28T04:36:54.249Z,95745.9
2019-04-28T04:37:56.677Z,95744.6
2019-04-28T04:40:04.785Z,95746
2019-04-28T04:41:06.651Z,95743.4
2019-04-28T04:43:14.072Z,95739.4
2019-04-28T04:44:16.233Z,95742.4
2019-04-28T04:46:24.233Z,95747.3
2019-04-28T04:47:26.657Z,95743
2019-04-28T04:49:35.026Z,95742.1
2019-04-28T04:50:37.445Z,95740.2
2019-04-28T04:52:44.041Z,95735.8
2019-04-28T04:53:46.477Z,95735.2
2019-04-28T04:54:48.339Z,95734
2019-04-28T04:55:55.243Z,95734.3
2019-04-28T04:56:57.405Z,95734.3
2019-04-28T04:58:02.420Z,95731.4
2019-04-28T04:59:04.840Z,95724.8
2019-04-28T05:00:07.261Z,95732
2019-04-28T05:01:14.204Z,95724.2
2019-04-28T05:03:22.784Z,95719.2
2019-04-28T05:04:25.201Z,95721.4
2019-04-28T05:05:27.376Z,95718.8
2019-04-28T05:06:31.013Z,95717.3
2019-04-28T05:07:33.447Z,95713.7
2019-04-28T05:08:35.871Z,95714.5
2019-04-28T05:09:39.933Z,95714.6
2019-04-28T05:10:42.082Z,95715.7
2019-04-28T05:11:44.503Z,95710.5
2019-04-28T05:12:46.651Z,95714
2019-04-28T05:13:50.729Z,95714.4
2019-04-28T05:14:52.588Z,95714.5
2019-04-28T05:15:54.744Z,95715.6
2019-04-28T05:16:57.163Z,95717.9
2019-04-28T05:18:01.606Z,95717
2019-04-28T05:19:04.019Z,95718.4
2019-04-28T05:20:06.447Z,95713.1
2019-04-28T05:21:07.754Z,95716
2019-04-28T05:22:11.663Z,95711.5
2019-04-28T05:23:13.821Z,95714.6
2019-04-28T05:26:27.073Z,95715
2019-04-28T05:27:33.099Z,95713.4
2019-04-28T05:29:41.350Z,95717.1
2019-04-28T05:30:44.591Z,95717.5
2019-04-28T05:31:46.494Z,95717.2
2019-04-28T05:33:53.904Z,95717
2019-04-28T05:34:56.323Z,95721.7
2019-04-28T05:37:03.453Z,95723.5
2019-04-28T05:38:05.885Z,95725.7
2019-04-28T05:39:08.029Z,95721.5
2019-04-28T05:40:11.844Z,95726
2019-04-28T05:41:14.261Z,95728.9
2019-04-28T05:42:16.681Z,95726.8
2019-04-28T05:43:22.397Z,95724
2019-04-28T05:44:24.821Z,95726.3
2019-04-28T05:45:27.244Z,95727.1
2019-04-28T05:46:31.480Z,95726
2019-04-28T05:47:33.908Z,95723.7
2019-04-28T05:48:36.385Z,95724.1
2019-04-28T05:49:40.683Z,95724.6
2019-04-28T05:50:43.123Z,95724.3
2019-04-28T05:51:45.023Z,95727.7
2019-04-28T05:52:47.463Z,95724.3
2019-04-28T05:54:54.884Z,95724.5
2019-04-28T05:55:56.880Z,95721.8
2019-04-28T05:57:03.468Z,95725.5
2019-04-28T05:58:05.899Z,95722.9
2019-04-28T05:59:09.587Z,95726
2019-04-28T06:00:12.080Z,95728.4
2019-04-28T06:01:13.994Z,95726.3
2019-04-28T06:02:16.418Z,95728.4
2019-04-28T06:03:20.902Z,95726.1
2019-04-28T06:04:23.051Z,95728.2
2019-04-28T06:05:25.201Z,95720.9
2019-04-28T06:06:30.281Z,95720.7
2019-04-28T06:07:34.433Z,95719.1
2019-04-28T06:08:37.512Z,95718.3
2019-04-28T06:09:40.861Z,95725.3
2019-04-28T06:10:43.029Z,95718.4
2019-04-28T06:11:45.453Z,95727.8
2019-04-28T06:12:47.073Z,95730.7
2019-04-28T06:14:56.477Z,95724.1
2019-04-28T06:16:00.837Z,95724.2
2019-04-28T06:18:08.003Z,95727.7
2019-04-28T06:19:12.406Z,95721.5
2019-04-28T06:20:14.550Z,95725.9
2019-04-28T06:21:16.708Z,95727.7
2019-04-28T06:22:19.160Z,95725.5
2019-04-28T06:23:21.592Z,95733
2019-04-28T06:24:24.009Z,95733.6
2019-04-28T06:25:26.426Z,95732
2019-04-28T06:26:28.577Z,95734
2019-04-28T06:28:35.728Z,95731.8
2019-04-28T06:29:37.617Z,95727.6
2019-04-28T06:30:39.515Z,95729
2019-04-28T06:31:41.937Z,95728.2
2019-04-28T06:32:44.412Z,95726.8
2019-04-28T06:33:46.857Z,95726.4
2019-04-28T06:34:49.021Z,95724.6
2019-04-28T06:35:50.917Z,95730.1
2019-04-28T06:36:53.078Z,95719
2019-04-28T06:37:55.509Z,95729
2019-04-28T06:38:57.397Z,95722.3
2019-04-28T06:39:59.550Z,95725.1
2019-04-28T06:41:01.982Z,95725.4
2019-04-28T06:42:03.871Z,95730.3
2019-04-28T06:43:06.036Z,95729.4
2019-04-28T06:44:08.174Z,95727.4
2019-04-28T06:45:10.330Z,95729.5
2019-04-28T06:46:12.203Z,95725
2019-04-28T06:48:20.023Z,95730.7
2019-04-28T06:49:22.442Z,95724.6
2019-04-28T06:50:24.863Z,95731.6
2019-04-28T06:51:26.993Z,95731.8
2019-04-28T06:52:29.434Z,95734.4
2019-04-28T06:53:31.582Z,95729.7
2019-04-28T06:54:33.731Z,95726.7
2019-04-28T06:55:36.153Z,95735
2019-04-28T06:56:38.582Z,95735.2
2019-04-28T06:57:40.449Z,95730.2
2019-04-28T06:58:42.860Z,95733.6
2019-04-28T06:59:44.443Z,95736.5
2019-04-28T07:00:45.789Z,95734.8
2019-04-28T07:01:48.233Z,95730.5
2019-04-28T07:02:50.406Z,95730.7
2019-04-28T07:03:52.832Z,95734
2019-04-28T07:05:59.733Z,95728.4
2019-04-28T07:07:02.164Z,95734.8
2019-04-28T07:08:04.293Z,95739.8
2019-04-28T07:09:06.820Z,95743.7
2019-04-28T07:10:09.026Z,95738.8
2019-04-28T07:11:11.443Z,95735.6
2019-04-28T07:12:13.873Z,95734.6
2019-04-28T07:13:16.304Z,95741.8
2019-04-28T07:14:18.733Z,95734.8
2019-04-28T07:15:20.609Z,95741.6
2019-04-28T07:16:23.044Z,95734.8
2019-04-28T07:17:25.478Z,95744.7
2019-04-28T07:18:27.353Z,95746.2
2019-04-28T07:19:29.793Z,95747.7
2019-04-28T07:20:32.259Z,95741.8
2019-04-28T07:21:34.425Z,95755.4
2019-04-28T07:22:36.358Z,95742.9
2019-04-28T07:23:38.514Z,95747.6
2019-04-28T07:24:40.745Z,95748.6
2019-04-28T07:25:43.163Z,95747.5
2019-04-28T07:26:45.597Z,95743.1
2019-04-28T07:27:47.763Z,95741.5
2019-04-28T07:28:49.911Z,95741.4
2019-04-28T07:29:52.079Z,95739.2
2019-04-28T07:30:54.215Z,95736.2
2019-04-28T07:31:56.647Z,95733.8
2019-04-28T07:32:59.195Z,95730.1
2019-04-28T07:35:06.579Z,95729.5
2019-04-28T07:36:08.736Z,95731.1
2019-04-28T07:37:11.159Z,95729.4
2019-04-28T07:38:13.595Z,95730.8
2019-04-28T07:39:16.065Z,95730.8
2019-04-28T07:40:18.489Z,95730.8
2019-04-28T07:41:20.922Z,95733.3
2019-04-28T07:42:23.363Z,95730.6
2019-04-28T07:43:25.804Z,95729.5
2019-04-28T07:44:28.246Z,95727.1
2019-04-28T07:45:30.694Z,95735.3
2019-04-28T07:46:32.854Z,95731.2
2019-04-28T07:47:34.987Z,95731.2
2019-04-28T07:48:37.148Z,95742.3
2019-04-28T07:49:39.594Z,95734.1
2019-04-28T07:50:42.043Z,95732.1
2019-04-28T07:51:44.188Z,95739.5
2019-04-28T07:52:46.353Z,95740
2019-04-28T07:53:48.787Z,95741.5
2019-04-28T07:54:50.940Z,95743.5
2019-04-28T07:55:53.380Z,95745
2019-04-28T07:56:55.584Z,95744.7
2019-04-28T07:57:57.473Z,95735.9
2019-04-28T07:58:59.923Z,95742.5
2019-04-28T08:00:02.375Z,95742.3
2019-04-28T08:01:04.535Z,95741.4
2019-04-28T08:02:06.963Z,95743.6
2019-04-28T08:03:09.121Z,95741
2019-04-28T08:04:11.553Z,95743.4
2019-04-28T08:05:13.985Z,95751.7
2019-04-28T08:06:16.428Z,95749
2019-04-28T08:07:18.838Z,95748.2
2019-04-28T08:08:21.252Z,95751.3
2019-04-28T08:09:23.672Z,95752.3
2019-04-28T08:10:26.106Z,95753.4
2019-04-28T08:11:28.262Z,95750.9
2019-04-28T08:12:30.683Z,95752.4
2019-04-28T08:13:32.850Z,95749.2
2019-04-28T08:14:35.087Z,95751.3
2019-04-28T08:15:37.234Z,95739.7
2019-04-28T08:16:39.390Z,95752.4
2019-04-28T08:17:41.821Z,95749.4
2019-04-28T08:18:43.974Z,95753.1
2019-04-28T08:19:46.396Z,95751.9
2019-04-28T08:20:48.599Z,95752.6
2019-04-28T08:21:50.736Z,95746.7
2019-04-28T08:22:53.149Z,95749.8
2019-04-28T08:23:55.311Z,95748.1
2019-04-28T08:24:57.743Z,95741
2019-04-28T08:26:00.171Z,95740.1
2019-04-28T08:27:02.343Z,95740
2019-04-28T08:28:04.777Z,95740.7
2019-04-28T08:29:07.213Z,95729.9
2019-04-28T08:30:09.366Z,95741.5
2019-04-28T08:31:11.789Z,95749.5
2019-04-28T08:32:14.211Z,95740.3
2019-04-28T08:33:16.633Z,95737.4
2019-04-28T08:34:19.060Z,95738.1
2019-04-28T08:35:21.211Z,95741.6
2019-04-28T08:36:23.384Z,95747.7
2019-04-28T08:37:25.813Z,95742.1
2019-04-28T08:38:27.963Z,95741
2019-04-28T08:39:30.386Z,95746.4
2019-04-28T08:40:32.809Z,95744.7
2019-04-28T08:41:34.974Z,95752.2
2019-04-28T08:42:37.177Z,95749.2
2019-04-28T08:43:39.332Z,95748.6
2019-04-28T08:44:41.478Z,95749.5
2019-04-28T08:45:43.901Z,95753.3
2019-04-28T08:46:46.327Z,95751.1
2019-04-28T08:47:48.814Z,95751.9
2019-04-28T08:48:51.239Z,95751.4
2019-04-28T08:49:53.409Z,95748.1
2019-04-28T08:50:55.843Z,95749.2
2019-04-28T08:51:58.083Z,95751.1
2019-04-28T08:53:00.243Z,95747.9
2019-04-28T08:54:02.137Z,95749.4
2019-04-28T08:55:04.561Z,95750.4
2019-04-28T08:56:06.723Z,95753.3
2019-04-28T08:57:09.277Z,95759.9
2019-04-28T08:58:11.733Z,95757.1
2019-04-28T08:59:14.156Z,95758.1
2019-04-28T09:00:16.319Z,95761.2
2019-04-28T09:01:18.743Z,95754.7
2019-04-28T09:02:20.623Z,95757
2019-04-28T09:03:23.061Z,95757.7
2019-04-28T09:04:25.204Z,95753
2019-04-28T09:05:27.373Z,95756.8
2019-04-28T09:06:29.812Z,95757.9
2019-04-28T09:07:31.978Z,95758.4
2019-04-28T09:08:34.423Z,95761.6
2019-04-28T09:09:37.053Z,95755.5
2019-04-28T09:10:39.311Z,95758.2
2019-04-28T09:11:41.775Z,95757.1
2019-04-28T09:12:44.003Z,95752.2
2019-04-28T09:13:46.177Z,95753.6
2019-04-28T09:14:48.068Z,95756
2019-04-28T09:15:50.512Z,95751.9
2019-04-28T09:16:52.937Z,95750.8
2019-04-28T09:17:55.081Z,95750.6
2019-04-28T09:18:57.514Z,95748.8
2019-04-28T09:19:59.944Z,95747
2019-04-28T09:21:02.382Z,95742.6
2019-04-28T09:22:04.585Z,95744.2
2019-04-28T09:23:07.025Z,95740.1
2019-04-28T09:24:08.589Z,95742.8
2019-04-28T09:25:10.726Z,95742.2
2019-04-28T09:26:12.876Z,95740.1
2019-04-28T09:27:15.294Z,95738.1
2019-04-28T09:28:17.726Z,95738.3
2019-04-28T09:29:19.885Z,95737.3
2019-04-28T09:30:22.312Z,95736.3
2019-04-28T09:31:24.742Z,95731.3
2019-04-28T09:32:26.903Z,95732.3
2019-04-28T09:33:29.309Z,95729.8
2019-04-28T09:34:31.465Z,95730.6
2019-04-28T09:35:33.623Z,95736.5
2019-04-28T09:36:35.223Z,95737
2019-04-28T09:37:37.644Z,95727.8
2019-04-28T09:38:40.068Z,95726.5
2019-04-28T09:39:41.987Z,95717.4
2019-04-28T09:40:44.135Z,95720
2019-04-28T09:41:46.572Z,95726.9
2019-04-28T09:42:49.022Z,95722.5
2019-04-28T09:43:50.913Z,95723.3
2019-04-28T09:44:53.075Z,95724.8
2019-04-28T09:45:55.482Z,95725.5
2019-04-28T09:46:57.933Z,95719.5
2019-04-28T09:48:00.353Z,95717.4
2019-04-28T09:49:02.514Z,95717.3
2019-04-28T09:50:04.673Z,95724.4
2019-04-28T09:51:07.103Z,95722
2019-04-28T09:52:09.282Z,95715.6
2019-04-28T09:53:11.143Z,95718.2
2019-04-28T09:54:13.577Z,95725.9
2019-04-28T09:55:15.735Z,95719.1
2019-04-28T09:56:18.175Z,95727.2
2019-04-28T09:57:20.603Z,95726
2019-04-28T09:58:23.035Z,95718.2
2019-04-28T09:59:24.663Z,95716.1
2019-04-28T10:00:26.826Z,95720.4
2019-04-28T10:01:28.724Z,95720.9
2019-04-28T10:02:30.856Z,95720.8
2019-04-28T10:03:33.293Z,95727
2019-04-28T10:05:40.433Z,95730.5
2019-04-28T10:06:42.872Z,95725.3
2019-04-28T10:07:45.016Z,95731
2019-04-28T10:08:47.464Z,95732.4
2019-04-28T10:09:49.891Z,95725.1
2019-04-28T10:10:52.053Z,95718.8
2019-04-28T10:11:53.641Z,95719.3
2019-04-28T10:12:55.541Z,95721.8
2019-04-28T10:13:58.533Z,95723
2019-04-28T10:15:00.963Z,95727.9
2019-04-28T10:16:03.124Z,95724.2
2019-04-28T10:17:05.301Z,95726.1
2019-04-28T10:18:07.475Z,95715
2019-04-28T10:19:09.896Z,95716.7
2019-04-28T10:20:11.783Z,95718.2
2019-04-28T10:21:14.198Z,95720
2019-04-28T10:22:16.631Z,95724.2
2019-04-28T10:23:18.813Z,95727.7
2019-04-28T10:24:20.974Z,95721
2019-04-28T10:25:23.121Z,95722.5
2019-04-28T10:26:25.559Z,95718.6
2019-04-28T10:27:27.719Z,95720.4
2019-04-28T10:28:30.145Z,95718.1
2019-04-28T10:29:34.235Z,95711.2
2019-04-28T10:30:36.675Z,95708.9
2019-04-28T10:31:38.543Z,95703
2019-04-28T10:32:40.422Z,95702.1
2019-04-28T10:33:42.291Z,95698.6
2019-04-28T10:35:49.466Z,95699.2
2019-04-28T10:36:51.611Z,95697.7
2019-04-28T10:37:53.475Z,95697.6
2019-04-28T10:38:55.902Z,95701.9
2019-04-28T10:39:58.053Z,95691.1
2019-04-28T10:41:00.490Z,95693.1
2019-04-28T10:42:02.643Z,95685.5
2019-04-28T10:43:05.067Z,95684.7
2019-04-28T10:45:12.217Z,95683.3
2019-04-28T10:46:14.645Z,95682.3
2019-04-28T10:47:16.818Z,95683.2
2019-04-28T10:48:19.254Z,95678.9
2019-04-28T10:49:21.683Z,95676
2019-04-28T10:50:24.118Z,95680.9
2019-04-28T10:51:26.277Z,95675.9
2019-04-28T10:52:28.401Z,95676.7
2019-04-28T10:53:31.031Z,95677.5
2019-04-28T10:54:33.481Z,95677.6
2019-04-28T10:55:35.916Z,95669.5
2019-04-28T10:56:38.068Z,95677.4
2019-04-28T10:57:40.278Z,95672.8
2019-04-28T10:58:42.413Z,95672.3
2019-04-28T10:59:44.572Z,95673.7
2019-04-28T11:00:46.728Z,95675.2
2019-04-28T11:01:48.628Z,95671.8
2019-04-28T11:02:50.805Z,95669.1
2019-04-28T11:03:53.244Z,95669.1
2019-04-28T11:06:01.072Z,95666
2019-04-28T11:07:03.540Z,95670
2019-04-28T11:08:05.702Z,95669.1
2019-04-28T11:09:08.141Z,95662.4
2019-04-28T11:10:10.567Z,95667.7
2019-04-28T11:11:12.989Z,95672.4
2019-04-28T11:12:15.417Z,95668.3
2019-04-28T11:13:17.856Z,95666
2019-04-28T11:14:19.718Z,95667.4
2019-04-28T11:15:21.615Z,95661.5
2019-04-28T11:16:24.053Z,95667.9
2019-04-28T11:17:26.483Z,95668.1
2019-04-28T11:18:28.640Z,95662.8
2019-04-28T11:19:31.055Z,95664.5
2019-04-28T11:20:33.502Z,95666.7
2019-04-28T11:21:35.630Z,95669.6
2019-04-28T11:22:37.523Z,95670.1
2019-04-28T11:23:39.958Z,95672.8
2019-04-28T11:24:42.091Z,95675.7
2019-04-28T11:25:44.542Z,95673.7
2019-04-28T11:26:46.157Z,95674.3
2019-04-28T11:27:48.583Z,95670.9
2019-04-28T11:28:51.015Z,95673.4
2019-04-28T11:29:53.213Z,95672.5
2019-04-28T11:30:55.642Z,95676.8
2019-04-28T11:31:57.517Z,95668.5
2019-04-28T11:32:59.970Z,95676.7
2019-04-28T11:34:02.126Z,95675.6
2019-04-28T11:35:04.254Z,95676.9
2019-04-28T11:36:06.678Z,95680.3
2019-04-28T11:37:08.814Z,95678
2019-04-28T11:38:11.237Z,95677
2019-04-28T11:39:13.375Z,95678.1
2019-04-28T11:40:15.806Z,95679.5
2019-04-28T11:41:18.242Z,95675.4
2019-04-28T11:42:20.676Z,95678.8
2019-04-28T11:43:23.115Z,95674.8
2019-04-28T11:44:25.570Z,95675.6
2019-04-28T11:45:27.694Z,95677.2
2019-04-28T11:46:29.851Z,95677.7
2019-04-28T11:47:32.021Z,95673
2019-04-28T11:48:34.184Z,95673.1
2019-04-28T11:49:36.352Z,95670.6
2019-04-28T11:50:38.768Z,95667.8
2019-04-28T11:51:40.923Z,95671.9
2019-04-28T11:52:43.355Z,95670
2019-04-28T11:53:45.781Z,95669
2019-04-28T11:54:48.244Z,95667.9
2019-04-28T11:55:50.381Z,95667.3
2019-04-28T11:56:52.549Z,95660
2019-04-28T11:57:54.439Z,95666
2019-04-28T11:58:56.610Z,95660.9
2019-04-28T11:59:59.069Z,95663.2
2019-04-28T12:01:01.500Z,95665.3
2019-04-28T12:02:03.401Z,95667
2019-04-28T12:03:05.900Z,95662.9
2019-04-28T12:04:07.759Z,95661.5
2019-04-28T12:05:09.670Z,95665
2019-04-28T12:06:11.542Z,95664.3
2019-04-28T12:07:13.715Z,95668.2
2019-04-28T12:08:16.144Z,95660.7
2019-04-28T12:09:18.289Z,95659
2019-04-28T12:10:20.713Z,95658.6
2019-04-28T12:11:23.141Z,95654.1
2019-04-28T12:12:25.293Z,95654.9
2019-04-28T12:13:27.721Z,95655
2019-04-28T12:14:29.603Z,95652.4
2019-04-28T12:15:32.026Z,95653.5
2019-04-28T12:16:34.160Z,95658.3
2019-04-28T12:17:36.705Z,95656.2
2019-04-28T12:18:39.139Z,95653.2
2019-04-28T12:19:41.307Z,95658.8
2019-04-28T12:20:43.197Z,95658.8
2019-04-28T12:21:45.342Z,95654.9
2019-04-28T12:22:47.235Z,95655.7
2019-04-28T12:23:49.406Z,95651.2
2019-04-28T12:24:51.836Z,95653.5
2019-04-28T12:25:54.261Z,95650.9
2019-04-28T12:26:56.452Z,95656
2019-04-28T12:27:59.208Z,95659.4
2019-04-28T12:29:02.407Z,95656.4
2019-04-28T12:30:04.856Z,95656.1
2019-04-28T12:31:07.016Z,95659.3
2019-04-28T12:32:08.878Z,95655.1
2019-04-28T12:33:10.777Z,95656.5
2019-04-28T12:34:13.248Z,95654.2
2019-04-28T12:35:18.289Z,95652.6
2019-04-28T12:36:22.123Z,95649.5
2019-04-28T12:37:24.551Z,95650.6
2019-04-28T12:38:27.150Z,95649.2
2019-04-28T12:39:29.754Z,95646.9
2019-04-28T12:40:31.951Z,95648.8
2019-04-28T12:41:34.254Z,95653
2019-04-28T12:42:36.912Z,95647.2
2019-04-28T12:43:39.339Z,95650.8
2019-04-28T12:44:41.503Z,95646.4
2019-04-28T12:45:43.936Z,95649.1
2019-04-28T12:46:46.359Z,95652
2019-04-28T12:47:48.782Z,95646.8
2019-04-28T12:48:50.943Z,95651
2019-04-28T12:49:53.374Z,95648.4
2019-04-28T12:50:55.532Z,95647.5
2019-04-28T12:51:57.966Z,95647
2019-04-28T12:53:00.402Z,95650
2019-04-28T12:54:02.848Z,95647.4
2019-04-28T12:55:05.031Z,95648.6
2019-04-28T12:56:07.491Z,95645.8
2019-04-28T12:57:09.929Z,95645.7
2019-04-28T12:58:11.823Z,95645.8
2019-04-28T12:59:14.251Z,95644.8
2019-04-28T13:00:16.689Z,95643.1
2019-04-28T13:01:18.588Z,95644.2
2019-04-28T13:02:21.011Z,95643.3
2019-04-28T13:03:23.144Z,95643.1
2019-04-28T13:04:25.574Z,95641.4
2019-04-28T13:05:27.998Z,95641.7
2019-04-28T13:06:30.149Z,95641.3
2019-04-28T13:07:32.005Z,95641
2019-04-28T13:08:34.175Z,95641.5
2019-04-28T13:09:36.603Z,95641.2
2019-04-28T13:10:39.032Z,95638.1
2019-04-28T13:11:40.918Z,95635.5
2019-04-28T13:12:43.358Z,95632.5
2019-04-28T13:14:50.468Z,95633.5
2019-04-28T13:15:52.368Z,95627.8
2019-04-28T13:16:54.822Z,95631.5
2019-04-28T13:17:56.984Z,95630.9
2019-04-28T13:18:58.848Z,95626.3
2019-04-28T13:20:00.989Z,95629.5
2019-04-28T13:21:03.153Z,95626
2019-04-28T13:22:06.855Z,95628.2
2019-04-28T13:23:08.196Z,95626.6
2019-04-28T13:24:10.667Z,95630.4
2019-04-28T13:25:12.551Z,95631.1
2019-04-28T13:26:14.757Z,95625
2019-04-28T13:27:17.272Z,95624
2019-04-28T13:28:19.714Z,95620
2019-04-28T13:29:22.167Z,95626.4
2019-04-28T13:30:24.353Z,95624.6
2019-04-28T13:31:26.787Z,95622.7
2019-04-28T13:32:29.233Z,95616.3
2019-04-28T13:33:31.110Z,95621.4
2019-04-28T13:34:33.048Z,95621.5
2019-04-28T13:35:35.234Z,95615.3
2019-04-28T13:36:37.174Z,95620.6
2019-04-28T13:37:39.719Z,95617.9
2019-04-28T13:38:41.935Z,95615.8
2019-04-28T13:39:44.391Z,95613.2
2019-04-28T13:40:46.599Z,95610.4
2019-04-28T13:41:49.032Z,95614.6
2019-04-28T13:42:51.207Z,95618.3
2019-04-28T13:43:53.118Z,95612.7
2019-04-28T13:44:55.616Z,95610.6
2019-04-28T13:45:57.749Z,95612.1
2019-04-28T13:46:59.904Z,95610